multiplewarnings   checkhere

Nearby METAR Reports

 

ENZV - Stavanger
Actualización: 16/12/2018 16:20
Muy nuboso
Muy nuboso
 Viento del SE
Viento: SE 35 km/h
Temperatura: 3°C
Wind Chill: -3°C
Rocío: -3°C
Humedad: 65%
Barómetro: 1011 hPa
Clouds: Muy nuboso
Visibility: 10 km
Cloud details: Muy nuboso 1036 m
2018/12/16 15:20 ENZV 161520Z 14019KT 9999 BKN034 03/M03 Q1011 NOSIG
ENBR - Bergen
Actualización: 16/12/2018 16:20
Muy nuboso
Muy nuboso
 Viento del SSE
Viento: SSE 31 km/h
Temperatura: 5°C
Wind Chill: 0°C
Rocío: -6°C
Humedad: 45%
Barómetro: 1009 hPa
Clouds: Muy nuboso
Visibility: 10 km
Cloud details: Few Clouds 914 m
Muy nuboso 2195 m
2018/12/16 15:20 ENBR 161520Z 15017KT 9999 FEW030 BKN072 05/M06 Q1009 TEMPO 14025G35KT RMK WIND 1200FT 13036G48KT
 
ENHD - Haugesund
Actualización: 16/12/2018 16:20
Muy nuboso
Muy nuboso
 Viento del SSE
Viento: SSE 28 km/h
Temperatura: 4°C
Wind Chill: -1°C
Rocío: -3°C
Humedad: 61%
Barómetro: 1010 hPa
Clouds: Muy nuboso
Visibility: 10 km
Cloud details: Parcialmente nuboso 1250 m
Muy nuboso 2012 m
2018/12/16 15:20 ENHD 161520Z 15015KT 9999 SCT041 BKN066 04/M03 Q1010
ENCN - Kristiansand
Actualización: 16/12/2018 16:20
Light snow, Probáblemente lluvioso, Muy nuboso
Light snow, Probáblemente lluvioso, Muy nuboso
 Viento del SE
Viento: SE 13 km/h
Temperatura: 2°C
Wind Chill: -1°C
Rocío: -4°C
Humedad: 65%
Barómetro: 1015 hPa
Resumen: Light snow, Probáblemente lluvioso
Clouds: Muy nuboso
Visibility: 10 km
Cloud details: Few Clouds 610 m
Muy nuboso 1158 m
2018/12/16 15:20 ENCN 161520Z 13007KT 100V160 9999 -SNRA FEW020 BKN038 02/M04 Q1015
 
ENBO - Bodø
Actualización: 16/12/2018 16:20
Few Clouds
Few Clouds
 Viento del E
Viento: E 35 km/h
Temperatura: -4°C
Wind Chill: -12°C
Rocío: -10°C
Humedad: 63%
Barómetro: 1018 hPa
Clouds: Few Clouds
Visibility: 10 km
Cloud details: Few Clouds 610 m
2018/12/16 15:20 ENBO 161520Z 08019KT 9999 FEW020 M04/M10 Q1018 NOSIG
ENKR - Kirkenes
Actualización: 16/12/2018 16:20
Despejado
Despejado
 Viento del SSO
Viento: SSO 33 km/h
Temperatura: -8°C
Wind Chill: -17°C
Rocío: -11°C
Humedad: 79%
Barómetro: 1021 hPa
Resumen: Despejado
Visibility: greater than 10 km
2018/12/16 15:20 ENKR 161520Z 21018KT CAVOK M08/M11 Q1021 RMK WIND 731FT 23030KT
 
ENVA - Trondheim
Actualización: 16/12/2018 16:20
Despejado
Despejado
 Viento del SE
Viento: SE 19 km/h, Racha: 41 km/h
Temperatura: 2°C
Wind Chill: -2°C
Rocío: -6°C
Humedad: 56%
Barómetro: 1015 hPa
Resumen: Despejado
Visibility: greater than 10 km
2018/12/16 15:20 ENVA 161520Z 14010G22KT 090V170 CAVOK 02/M06 Q1015 RMK WIND 670FT 16017G27KT
ENGM - Oslo
Actualización: 16/12/2018 16:20
Light snow, Cubierto
Light snow, Cubierto
 Viento del E
Viento: E 6 km/h
Temperatura: -2°C
Rocío: -3°C
Humedad: 93%
Barómetro: 1019 hPa
Resumen: Light Snow
Clouds: Cubierto
Visibility: 8 km
Cloud details: Few Clouds 183 m
Muy nuboso 244 m
Cubierto 305 m
2018/12/16 15:20 ENGM 161520Z 08003KT 030V170 8000 -SN FEW006 BKN008 OVC010 M02/M03 Q1019 TEMPO SCT007 BKN010